Time;durP1;ratioP1;P1;durP2;ratioP2;P2;SDS_P1;SDS_P2;PMS_P1;PMS_P2;Temp;Humidity;BMP_temperature;BMP_pressure;BME280_temperature;BME280_humidity;BME280_pressure;Samples;Min_cycle;Max_cycle;Signal;HPM_P1;HPM_P2
2022/02/19 00:00:50;;;;;;;12.28;7.55;;;;;;;0.70;72.52;99962.37;1655307;84;20989;-68
2022/02/19 00:03:19;;;;;;;13.20;7.50;;;;;;;0.65;72.54;99961.36;1546214;86;9999982;-69
2022/02/19 00:05:49;;;;;;;14.38;7.47;;;;;;;0.64;72.60;99962.39;1677804;84;21062;-68
2022/02/19 00:08:16;;;;;;;14.90;7.33;;;;;;;0.63;72.70;99955.53;1672338;85;21109;-68
2022/02/19 00:10:45;;;;;;;12.70;7.00;;;;;;;0.63;72.86;99957.64;1672011;84;21065;-68
2022/02/19 00:13:12;;;;;;;13.58;7.25;;;;;;;0.63;72.99;99957.64;1677399;85;21676;-67
2022/02/19 00:15:41;;;;;;;15.25;7.55;;;;;;;0.65;73.12;99960.05;1632798;86;21129;-67
2022/02/19 00:18:10;;;;;;;12.98;7.42;;;;;;;0.68;73.23;99963.07;1672641;85;21038;-67
2022/02/19 00:20:37;;;;;;;15.20;7.72;;;;;;;0.70;73.34;99955.80;1682723;84;21041;-66
2022/02/19 00:23:06;;;;;;;14.68;7.92;;;;;;;0.74;73.40;99952.76;1671745;84;21069;-66
2022/02/19 00:25:38;;;;;;;13.68;7.10;;;;;;;0.78;73.50;99950.01;1689290;83;48934;-66
2022/02/19 00:28:04;;;;;;;14.63;7.97;;;;;;;0.81;73.53;99946.45;1654115;85;21076;-66
2022/02/19 00:30:33;;;;;;;14.83;7.85;;;;;;;0.88;73.57;99946.43;1658506;85;21021;-66
2022/02/19 00:32:59;;;;;;;15.60;7.90;;;;;;;0.88;73.64;99939.34;1664046;84;21061;-66
2022/02/19 00:35:28;;;;;;;15.38;8.50;;;;;;;0.92;73.67;99930.53;1628595;86;21116;-66
2022/02/19 00:37:55;;;;;;;14.80;8.10;;;;;;;0.95;73.66;99934.05;1678477;84;21635;-66
2022/02/19 00:40:22;;;;;;;16.45;9.28;;;;;;;0.93;73.65;99936.91;1670197;84;21089;-68
2022/02/19 00:42:50;;;;;;;17.50;9.40;;;;;;;0.96;73.67;99933.06;1664238;85;21073;-69
2022/02/19 00:45:17;;;;;;;16.00;9.03;;;;;;;0.96;73.67;99925.17;1665739;84;21565;-68
2022/02/19 00:47:44;;;;;;;13.98;8.43;;;;;;;0.99;73.65;99929.19;1679601;84;21060;-67
2022/02/19 00:50:11;;;;;;;14.20;8.20;;;;;;;0.99;73.59;99919.50;1675717;84;21155;-68
2022/02/19 00:52:40;;;;;;;14.65;9.10;;;;;;;1.01;73.52;99916.64;1671202;84;21094;-69
2022/02/19 00:55:07;;;;;;;15.85;8.80;;;;;;;0.99;73.42;99912.09;1676203;84;21101;-69
2022/02/19 00:57:35;;;;;;;14.33;8.73;;;;;;;0.97;73.29;99904.42;1677153;84;21254;-74
2022/02/19 01:00:06;;;;;;;15.63;9.60;;;;;;;0.93;73.16;99904.05;1676428;85;21014;-68
2022/02/19 01:02:36;;;;;;;14.33;8.08;;;;;;;0.89;73.10;99905.48;1636641;85;21101;-69
2022/02/19 01:05:06;;;;;;;14.30;7.87;;;;;;;0.86;73.03;99901.16;1678860;84;22295;-69
2022/02/19 01:07:35;;;;;;;15.93;8.48;;;;;;;0.83;73.05;99887.91;1672201;84;21112;-69
2022/02/19 01:10:04;;;;;;;15.23;8.78;;;;;;;0.81;73.05;99889.13;1663525;86;21042;-69
2022/02/19 01:12:35;;;;;;;14.55;8.65;;;;;;;0.80;73.04;99886.21;1661735;85;21188;-69
2022/02/19 01:15:06;;;;;;;16.12;9.00;;;;;;;0.78;73.02;99877.72;1684152;84;21824;-69
2022/02/19 01:17:34;;;;;;;18.40;9.03;;;;;;;0.76;73.00;99879.73;1667778;85;21671;-69
2022/02/19 01:20:01;;;;;;;17.25;8.78;;;;;;;0.73;73.02;99870.98;1647517;85;21072;-67
2022/02/19 01:22:28;;;;;;;15.55;8.50;;;;;;;0.72;73.02;99866.20;1676936;84;21152;-68
2022/02/19 01:24:58;;;;;;;14.55;8.53;;;;;;;0.69;73.01;99875.83;1675588;84;21564;-68
2022/02/19 01:27:24;;;;;;;15.63;7.70;;;;;;;0.65;73.05;99867.55;1665106;85;21548;-68
2022/02/19 01:29:53;;;;;;;16.05;8.43;;;;;;;0.64;73.11;99867.78;1679037;85;21585;-67
2022/02/19 01:32:24;;;;;;;16.75;8.75;;;;;;;0.62;73.15;99861.40;1678100;84;21766;-67
2022/02/19 01:34:52;;;;;;;15.50;8.40;;;;;;;0.62;73.16;99862.71;1660542;84;21048;-68
2022/02/19 01:37:20;;;;;;;17.12;9.20;;;;;;;0.62;73.24;99852.71;1644052;85;21070;-67
2022/02/19 01:39:49;;;;;;;15.03;8.40;;;;;;;0.64;73.32;99852.01;1678380;85;21041;-67
2022/02/19 01:42:18;;;;;;;18.02;8.85;;;;;;;0.65;73.37;99847.84;1659886;85;21583;-68
2022/02/19 01:44:47;;;;;;;16.32;8.65;;;;;;;0.66;73.41;99840.28;1644408;86;21504;-68
2022/02/19 01:47:17;;;;;;;13.93;8.75;;;;;;;0.70;73.48;99824.38;1676283;84;21575;-68
2022/02/19 01:49:47;;;;;;;15.93;8.10;;;;;;;0.75;73.50;99822.94;1677774;84;21155;-68
2022/02/19 01:52:18;;;;;;;15.60;9.03;;;;;;;0.78;73.52;99822.52;1628436;85;21122;-68
2022/02/19 01:54:44;;;;;;;15.58;9.33;;;;;;;0.80;73.49;99820.49;1638766;85;21069;-68
2022/02/19 01:57:24;;;;;;;14.50;8.83;;;;;;;0.82;73.49;99825.02;1637158;84;22326;-67
2022/02/19 01:59:59;;;;;;;17.40;8.50;;;;;;;0.86;73.51;99824.91;1658353;84;21521;-68
2022/02/19 02:02:35;;;;;;;14.30;7.87;;;;;;;0.88;73.50;99822.86;1647483;86;21052;-68
2022/02/19 02:05:21;;;;;;;15.38;7.72;;;;;;;0.89;73.47;99822.67;1671717;84;21572;-68
2022/02/19 02:07:49;;;;;;;19.50;8.68;;;;;;;0.93;73.53;99828.30;1677344;85;21152;-68
2022/02/19 02:10:17;;;;;;;15.95;7.53;;;;;;;0.93;73.59;99826.48;1656330;85;21188;-68
2022/02/19 02:12:45;;;;;;;13.03;6.87;;;;;;;0.98;73.64;99826.34;1663892;85;21045;-68
2022/02/19 02:15:26;;;;;;;11.28;6.70;;;;;;;1.00;73.75;99818.55;1645339;85;21117;-68
2022/02/19 02:17:57;;;;;;;11.25;7.00;;;;;;;1.04;73.86;99808.41;1660708;85;21662;-68
2022/02/19 02:20:27;;;;;;;14.30;7.17;;;;;;;1.09;74.02;99812.02;1643391;85;21509;-68
2022/02/19 02:22:54;;;;;;;13.43;7.20;;;;;;;1.16;74.20;99814.09;1640598;85;22278;-68
2022/02/19 02:25:30;;;;;;;15.90;8.03;;;;;;;1.24;74.38;99812.21;1667907;84;21426;-68
2022/02/19 02:27:59;;;;;;;12.07;7.55;;;;;;;1.34;74.51;99819.91;1677348;84;21168;-69
2022/02/19 02:30:31;;;;;;;11.83;7.55;;;;;;;1.44;74.63;99814.69;1669388;84;21156;-68
2022/02/19 02:33:09;;;;;;;15.18;7.80;;;;;;;1.54;74.71;99813.69;1665924;85;21128;-68
2022/02/19 02:35:36;;;;;;;11.48;6.90;;;;;;;1.64;74.79;99811.36;1671110;84;21581;-68
2022/02/19 02:38:06;;;;;;;12.90;7.58;;;;;;;1.77;74.81;99823.60;1676460;84;21635;-68
2022/02/19 02:40:34;;;;;;;11.95;7.47;;;;;;;1.87;74.84;99823.91;1652808;85;21085;-68
2022/02/19 02:43:03;;;;;;;12.07;6.92;;;;;;;1.97;74.81;99824.20;1664738;84;21693;-68
2022/02/19 02:45:33;;;;;;;13.98;7.05;;;;;;;2.06;74.73;99815.52;1685957;83;21081;-68
2022/02/19 02:48:00;;;;;;;10.70;5.95;;;;;;;2.16;74.66;99811.05;1676121;84;20969;-68
2022/02/19 02:50:30;;;;;;;13.78;6.90;;;;;;;2.24;74.55;99816.05;1658186;85;21052;-67
2022/02/19 02:52:59;;;;;;;12.05;6.25;;;;;;;2.33;74.43;99819.97;1655131;86;21899;-67
2022/02/19 02:55:26;;;;;;;12.30;6.50;;;;;;;2.41;74.33;99810.98;1672460;84;21984;-67
2022/02/19 02:57:56;;;;;;;11.08;6.60;;;;;;;2.47;74.22;99808.27;1677483;84;21097;-67
2022/02/19 03:00:25;;;;;;;10.20;5.92;;;;;;;2.56;74.11;99797.68;1658699;85;21635;-68
2022/02/19 03:02:53;;;;;;;10.70;5.65;;;;;;;2.64;73.96;99787.87;1666860;85;21060;-68
2022/02/19 03:05:21;;;;;;;11.20;5.87;;;;;;;2.69;73.76;99784.84;1658978;84;21132;-67
2022/02/19 03:07:51;;;;;;;11.75;5.95;;;;;;;2.76;73.55;99787.38;1675832;85;21628;-67
2022/02/19 03:10:19;;;;;;;11.53;5.50;;;;;;;2.82;73.36;99785.17;1673649;84;21619;-67
2022/02/19 03:12:48;;;;;;;11.03;5.92;;;;;;;2.89;73.15;99780.59;1663744;84;21057;-68
2022/02/19 03:15:18;;;;;;;8.03;4.90;;;;;;;2.95;72.93;99775.74;1677469;84;21668;-68
2022/02/19 03:17:49;;;;;;;10.55;5.05;;;;;;;3.00;72.67;99772.45;1665329;84;21143;-68
2022/02/19 03:20:20;;;;;;;10.18;4.80;;;;;;;3.05;72.49;99772.03;1674055;85;21888;-68
2022/02/19 03:22:49;;;;;;;10.03;4.78;;;;;;;3.11;72.24;99762.94;1633043;86;21042;-69
2022/02/19 03:25:20;;;;;;;8.03;4.55;;;;;;;3.17;71.98;99764.16;1633200;86;21089;-69
2022/02/19 03:27:48;;;;;;;9.65;4.25;;;;;;;3.22;71.66;99758.18;1633427;85;21014;-69
2022/02/19 03:30:20;;;;;;;11.20;4.95;;;;;;;3.25;71.37;99750.61;1651829;85;21076;-69
2022/02/19 03:32:48;;;;;;;9.65;4.70;;;;;;;3.32;71.15;99747.06;1642542;86;21789;-69
2022/02/19 03:35:17;;;;;;;7.92;4.55;;;;;;;3.36;70.85;99750.34;1641983;86;21121;-69
2022/02/19 03:37:45;;;;;;;9.40;4.22;;;;;;;3.40;70.61;99739.61;1630551;86;21104;-69
2022/02/19 03:40:14;;;;;;;9.55;4.83;;;;;;;3.43;70.25;99736.52;1667230;85;21088;-69
2022/02/19 03:42:44;;;;;;;10.10;4.92;;;;;;;3.48;70.05;99737.94;1660469;85;21117;-69
2022/02/19 03:45:14;;;;;;;7.42;4.03;;;;;;;3.53;69.79;99726.18;1624515;88;21973;-66
2022/02/19 03:47:45;;;;;;;7.00;3.92;;;;;;;3.58;69.45;99724.16;1651460;85;21580;-69
2022/02/19 03:50:17;;;;;;;9.58;4.33;;;;;;;3.61;69.17;99721.05;1634075;86;21668;-69
2022/02/19 03:52:45;;;;;;;9.80;3.98;;;;;;;3.66;68.78;99716.41;1650474;85;21061;-69
2022/02/19 03:55:18;;;;;;;6.72;3.50;;;;;;;3.70;68.49;99713.06;1678748;85;21143;-69
2022/02/19 03:57:46;;;;;;;8.65;4.00;;;;;;;3.74;68.16;99714.20;1668142;85;21782;-68
2022/02/19 04:00:14;;;;;;;7.00;3.60;;;;;;;3.81;67.82;99711.44;1652101;86;21559;-68
2022/02/19 04:02:43;;;;;;;9.18;4.15;;;;;;;3.87;67.25;99711.02;1626133;86;21086;-69
2022/02/19 04:05:12;;;;;;;10.78;4.45;;;;;;;3.92;66.81;99715.91;1675545;85;21619;-69
2022/02/19 04:07:42;;;;;;;13.10;4.37;;;;;;;3.97;66.18;99707.27;1642018;87;21110;-68
2022/02/19 04:10:10;;;;;;;10.23;3.98;;;;;;;4.04;65.77;99709.25;1656554;84;21779;-68
2022/02/19 04:12:40;;;;;;;9.10;4.25;;;;;;;4.10;65.15;99699.59;1652232;86;20974;-68
2022/02/19 04:15:09;;;;;;;8.00;3.80;;;;;;;4.16;64.57;99683.59;1651994;86;21626;-68
2022/02/19 04:17:39;;;;;;;8.85;4.78;;;;;;;4.24;64.07;99679.76;1642605;86;21141;-68
2022/02/19 04:20:08;;;;;;;9.88;4.15;;;;;;;4.29;63.33;99678.55;1654292;86;21646;-68
2022/02/19 04:22:39;;;;;;;8.85;4.15;;;;;;;4.33;62.88;99665.65;1652025;86;21081;-68
2022/02/19 04:25:09;;;;;;;9.08;3.87;;;;;;;4.37;62.66;99674.18;1651575;86;21049;-68
2022/02/19 04:27:36;;;;;;;9.48;3.87;;;;;;;4.42;62.04;99670.84;1632740;86;21034;-68
2022/02/19 04:30:06;;;;;;;8.78;3.87;;;;;;;4.45;61.97;99677.78;1679490;85;21084;-68
2022/02/19 04:32:35;;;;;;;7.17;3.62;;;;;;;4.50;61.62;99685.50;1680111;85;21034;-68
2022/02/19 04:35:02;;;;;;;6.37;3.72;;;;;;;4.52;61.21;99682.11;1638461;86;21160;-68
2022/02/19 04:37:31;;;;;;;8.75;3.95;;;;;;;4.53;60.83;99679.75;1626251;88;21128;-68
2022/02/19 04:40:00;;;;;;;8.78;3.83;;;;;;;4.56;60.65;99681.91;1630645;85;20990;-68
2022/02/19 04:42:31;;;;;;;6.45;3.60;;;;;;;4.58;60.41;99674.55;1680380;84;21026;-68
2022/02/19 04:45:00;;;;;;;9.20;3.60;;;;;;;4.61;59.95;99643.66;1641185;85;21165;-68
2022/02/19 04:47:28;;;;;;;6.17;3.20;;;;;;;4.63;59.94;99645.00;1626281;88;21550;-68
2022/02/19 04:49:55;;;;;;;7.95;3.83;;;;;;;4.67;59.75;99629.45;1627128;86;21556;-67
2022/02/19 04:52:22;;;;;;;6.10;3.80;;;;;;;4.68;59.63;99629.23;1627100;86;21086;-68
2022/02/19 04:54:51;;;;;;;7.37;3.50;;;;;;;4.70;59.44;99630.30;1626234;88;21506;-68
2022/02/19 04:57:19;;;;;;;8.10;3.75;;;;;;;4.72;59.25;99626.91;1655044;86;21049;-68
2022/02/19 04:59:46;;;;;;;7.75;3.65;;;;;;;4.72;59.07;99635.36;1654893;85;21479;-68
2022/02/19 05:02:14;;;;;;;7.37;3.72;;;;;;;4.72;58.66;99641.45;1654071;86;21607;-68
2022/02/19 05:04:44;;;;;;;7.20;3.50;;;;;;;4.74;58.63;99647.31;1642611;86;21610;-68
2022/02/19 05:07:13;;;;;;;6.97;3.45;;;;;;;4.76;58.61;99641.24;1655175;84;21596;-68
2022/02/19 05:09:42;;;;;;;8.45;3.80;;;;;;;4.78;58.25;99640.49;1652448;85;21025;-68
2022/02/19 05:12:10;;;;;;;8.65;3.83;;;;;;;4.80;57.92;99640.23;1651945;86;21559;-68
2022/02/19 05:14:40;;;;;;;8.73;4.35;;;;;;;4.83;57.86;99643.73;1651616;86;21082;-67
2022/02/19 05:17:21;;;;;;;7.35;3.22;;;;;;;4.85;57.73;99641.13;1625216;88;21017;-68
2022/02/19 05:19:49;;;;;;;8.35;3.17;;;;;;;4.87;57.51;99619.70;1625780;88;20999;-67
2022/02/19 05:22:17;;;;;;;7.10;3.45;;;;;;;4.89;57.59;99618.42;1674735;85;20978;-68
2022/02/19 05:24:46;;;;;;;5.28;3.08;;;;;;;4.90;57.16;99597.56;1655686;84;21183;-68
2022/02/19 05:27:14;;;;;;;6.53;3.30;;;;;;;4.94;57.25;99603.95;1626263;88;21023;-67
2022/02/19 05:29:41;;;;;;;7.10;3.60;;;;;;;4.97;57.07;99597.88;1662953;85;21063;-68
2022/02/19 05:32:10;;;;;;;6.78;3.17;;;;;;;5.00;56.76;99593.43;1652324;85;21097;-68
2022/02/19 05:34:44;;;;;;;6.62;3.60;;;;;;;5.01;56.51;99597.17;1640645;87;21527;-67
2022/02/19 05:37:11;;;;;;;6.85;3.35;;;;;;;5.06;56.47;99606.48;1655247;84;21048;-67
2022/02/19 05:39:40;;;;;;;6.00;3.17;;;;;;;5.08;56.35;99597.00;1654896;85;21035;-66
2022/02/19 05:42:09;;;;;;;6.58;3.20;;;;;;;5.10;56.00;99591.74;1679936;85;20987;-67
2022/02/19 05:44:35;;;;;;;7.00;3.30;;;;;;;5.13;55.86;99601.02;1707447;84;21510;-67
2022/02/19 05:47:05;;;;;;;5.45;2.62;;;;;;;5.17;55.84;99595.53;1658170;84;21088;-68
2022/02/19 05:49:34;;;;;;;5.00;3.10;;;;;;;5.21;55.48;99598.49;1652459;86;21193;-68
2022/02/19 05:52:06;;;;;;;;;;;;;;;5.24;55.50;99605.95;1649692;86;21126;-68
2022/02/19 05:54:34;;;;;;;7.75;3.25;;;;;;;5.25;55.51;99615.48;1631234;86;20931;-67
2022/02/19 05:57:04;;;;;;;7.55;3.20;;;;;;;5.27;55.14;99614.20;1624720;88;21105;-68
2022/02/19 05:59:33;;;;;;;7.33;3.20;;;;;;;5.31;55.11;99611.33;1632458;86;21026;-68
2022/02/19 06:02:00;;;;;;;5.00;2.75;;;;;;;5.33;55.08;99609.25;1651978;86;21144;-68
2022/02/19 06:04:28;;;;;;;6.58;3.15;;;;;;;5.35;54.97;99612.44;1654957;85;21324;-68
2022/02/19 06:06:55;;;;;;;6.87;3.30;;;;;;;5.39;54.87;99596.33;1652023;86;21057;-68
2022/02/19 06:09:24;;;;;;;7.10;2.95;;;;;;;5.44;54.76;99593.48;1641683;87;21034;-68
2022/02/19 06:11:52;;;;;;;6.45;2.85;;;;;;;5.47;54.70;99601.73;1654519;86;21109;-68
2022/02/19 06:14:21;;;;;;;6.80;3.10;;;;;;;5.51;54.65;99617.94;1627423;86;21136;-67
2022/02/19 06:16:50;;;;;;;6.15;2.72;;;;;;;5.54;54.71;99606.84;1651697;86;20969;-68
2022/02/19 06:19:18;;;;;;;6.35;2.90;;;;;;;5.55;54.66;99606.59;1626085;88;21620;-67
2022/02/19 06:21:46;;;;;;;6.58;2.90;;;;;;;5.57;54.86;99615.62;1625985;88;21635;-68
2022/02/19 06:24:13;;;;;;;6.37;3.12;;;;;;;5.57;55.22;99626.23;1651993;86;21616;-68
2022/02/19 06:26:39;;;;;;;6.97;3.10;;;;;;;5.55;55.56;99626.98;1652208;86;21140;-68
2022/02/19 06:29:07;;;;;;;6.53;2.60;;;;;;;5.53;55.87;99636.52;1623696;88;21096;-68
2022/02/19 06:31:35;;;;;;;8.23;3.05;;;;;;;5.52;55.89;99620.33;1626323;88;21085;-67
2022/02/19 06:34:02;;;;;;;6.85;3.10;;;;;;;5.49;56.05;99606.25;1651964;86;21073;-68
2022/02/19 06:36:31;;;;;;;7.03;3.22;;;;;;;5.48;56.25;99598.03;1652040;86;21109;-68
2022/02/19 06:38:59;;;;;;;5.67;2.83;;;;;;;5.47;56.42;99588.50;1646804;86;21535;-67
2022/02/19 06:41:28;;;;;;;6.03;2.87;;;;;;;5.47;56.50;99575.25;1627723;86;21641;-68
2022/02/19 06:43:58;;;;;;;6.83;2.90;;;;;;;5.47;56.54;99579.23;1650774;87;20979;-68
2022/02/19 06:46:25;;;;;;;5.65;2.80;;;;;;;5.48;56.53;99549.56;1654622;85;21085;-68
2022/02/19 06:48:52;;;;;;;5.37;2.50;;;;;;;5.47;56.39;99551.42;1667771;86;21114;-68
2022/02/19 06:51:19;;;;;;;5.30;2.60;;;;;;;5.53;56.37;99570.83;1680309;85;21599;-69
2022/02/19 06:53:46;;;;;;;5.90;2.72;;;;;;;5.55;56.08;99569.50;1677963;85;21053;-68
2022/02/19 06:56:13;;;;;;;6.92;2.70;;;;;;;5.59;55.80;99579.08;1678247;85;21128;-68
2022/02/19 06:58:40;;;;;;;8.68;3.20;;;;;;;5.63;55.59;99580.20;1667877;86;21145;-67
2022/02/19 07:01:06;;;;;;;8.85;3.10;;;;;;;5.65;55.08;99584.72;1680648;85;21026;-67
2022/02/19 07:03:33;;;;;;;6.28;2.85;;;;;;;5.66;54.86;99590.31;1651503;87;21137;-68
2022/02/19 07:06:03;;;;;;;6.72;2.80;;;;;;;5.69;54.59;99575.22;1648189;87;20986;-67
2022/02/19 07:08:36;;;;;;;7.05;3.17;;;;;;;5.70;54.02;99551.66;1651477;86;21184;-68
2022/02/19 07:11:03;;;;;;;6.67;3.02;;;;;;;5.73;53.93;99549.05;1678115;85;21070;-68
2022/02/19 07:13:30;;;;;;;6.30;2.65;;;;;;;5.75;53.94;99550.91;1654456;85;21114;-68
2022/02/19 07:15:58;;;;;;;7.45;2.80;;;;;;;5.78;53.67;99527.89;1651556;87;21157;-68
2022/02/19 07:18:46;;;;;;;5.03;2.72;;;;;;;5.79;53.28;99509.11;1657269;85;21546;-67
2022/02/19 07:21:15;;;;;;;6.40;3.10;;;;;;;5.83;53.01;99497.48;1678564;85;21026;-68
2022/02/19 07:23:42;;;;;;;5.55;2.80;;;;;;;5.87;52.71;99493.27;1652636;86;21224;-68
2022/02/19 07:26:10;;;;;;;8.13;3.12;;;;;;;5.91;52.39;99474.48;1679485;85;21018;-68
2022/02/19 07:28:39;;;;;;;6.67;2.75;;;;;;;5.95;52.42;99495.47;1679353;85;21147;-67
2022/02/19 07:31:09;;;;;;;5.15;2.60;;;;;;;5.98;52.07;99490.20;1663009;85;20963;-67
2022/02/19 07:33:39;;;;;;;4.37;2.40;;;;;;;6.02;52.01;99474.87;1654341;86;21090;-68
2022/02/19 07:36:09;;;;;;;5.92;2.72;;;;;;;6.09;51.93;99459.55;1657615;85;20974;-68
2022/02/19 07:38:36;;;;;;;5.37;2.70;;;;;;;6.17;51.66;99462.25;1678074;85;21526;-68
2022/02/19 07:41:03;;;;;;;6.22;2.60;;;;;;;6.24;51.39;99448.24;1667741;86;21519;-69
2022/02/19 07:43:32;;;;;;;4.80;2.40;;;;;;;6.29;51.03;99439.01;1698513;83;21608;-69
2022/02/19 07:46:09;;;;;;;5.28;2.40;;;;;;;6.33;50.59;99443.27;1680325;83;21031;-69
2022/02/19 07:48:54;;;;;;;6.35;3.00;;;;;;;6.33;50.75;99447.25;1669206;86;21164;-67
2022/02/19 07:59:58;;;;;;;7.42;2.80;;;;;;;6.32;50.28;99472.18;1669435;86;21550;-68
2022/02/19 08:02:26;;;;;;;4.17;2.50;;;;;;;6.32;50.42;99458.39;1657262;85;21518;-68
2022/02/19 08:04:55;;;;;;;6.33;2.92;;;;;;;6.31;50.60;99472.68;1679369;85;21045;-69
2022/02/19 08:07:22;;;;;;;6.08;2.80;;;;;;;6.28;50.52;99470.54;1679849;85;21107;-69
2022/02/19 08:09:51;;;;;;;7.65;3.02;;;;;;;6.25;50.38;99461.80;1652927;86;21059;-68
2022/02/19 08:12:18;;;;;;;6.03;2.98;;;;;;;6.26;50.78;99489.11;1653042;86;21014;-68
2022/02/19 08:14:45;;;;;;;7.05;3.10;;;;;;;6.25;50.77;99498.92;1679643;85;21045;-68
2022/02/19 08:17:12;;;;;;;6.58;3.15;;;;;;;6.25;50.88;99498.92;1679442;85;21084;-68
2022/02/19 08:19:41;;;;;;;6.97;3.50;;;;;;;6.23;50.89;99494.38;1652792;86;21150;-68
2022/02/19 08:22:10;;;;;;;6.65;3.30;;;;;;;6.22;50.85;99519.81;1679530;85;21006;-68
2022/02/19 08:24:37;;;;;;;6.50;3.45;;;;;;;6.21;50.92;99491.17;1679485;85;21082;-68
2022/02/19 08:27:05;;;;;;;6.17;3.08;;;;;;;6.26;51.06;99515.09;1669197;85;21003;-69
2022/02/19 08:29:33;;;;;;;6.35;3.40;;;;;;;6.32;51.29;99494.72;1681896;85;20954;-69
2022/02/19 08:32:00;;;;;;;7.20;3.25;;;;;;;6.40;51.57;99478.85;1653241;86;21557;-69
2022/02/19 08:34:27;;;;;;;6.28;3.00;;;;;;;6.45;51.72;99471.73;1652576;86;21026;-69
2022/02/19 08:36:56;;;;;;;5.25;3.00;;;;;;;6.45;51.66;99478.86;1678438;85;21053;-69
2022/02/19 08:39:26;;;;;;;5.42;3.10;;;;;;;6.46;51.80;99472.53;1677806;85;21081;-69
2022/02/19 08:41:53;;;;;;;6.92;3.40;;;;;;;6.48;51.85;99458.46;1651678;87;21066;-69
2022/02/19 08:44:23;;;;;;;5.60;3.20;;;;;;;6.50;51.91;99493.50;1678050;85;21129;-69
2022/02/19 08:46:51;;;;;;;5.78;2.92;;;;;;;6.48;51.83;99475.70;1678225;85;21065;-69
2022/02/19 08:49:19;;;;;;;5.40;2.70;;;;;;;6.45;51.67;99447.86;1667511;86;21067;-69
2022/02/19 08:51:49;;;;;;;5.55;2.95;;;;;;;6.45;51.92;99486.32;1670577;84;21006;-69
2022/02/19 08:54:16;;;;;;;5.90;3.02;;;;;;;6.47;52.03;99505.95;1652093;86;21469;-69
2022/02/19 08:56:47;;;;;;;7.70;3.08;;;;;;;6.48;52.08;99479.19;1652193;86;21162;-68
2022/02/19 08:59:12;;;;;;;6.78;3.40;;;;;;;6.52;52.00;99456.91;1626303;88;21199;-68
2022/02/19 09:01:39;;;;;;;7.42;3.30;;;;;;;6.57;52.01;99480.80;1626602;88;21014;-68
2022/02/19 09:04:07;;;;;;;6.70;3.12;;;;;;;6.64;52.03;99458.81;1651989;86;21658;-67
2022/02/19 09:06:35;;;;;;;6.00;3.27;;;;;;;6.67;51.81;99466.27;1652136;86;21062;-67
2022/02/19 09:09:05;;;;;;;6.55;3.58;;;;;;;6.69;51.75;99461.51;1626483;88;21500;-67
2022/02/19 09:11:34;;;;;;;6.65;3.72;;;;;;;6.68;51.55;99469.20;1626156;88;21106;-68
2022/02/19 09:14:01;;;;;;;7.08;3.50;;;;;;;6.63;51.47;99474.48;1626375;88;20982;-68
2022/02/19 09:16:29;;;;;;;7.35;3.50;;;;;;;6.61;51.78;99470.47;1651916;86;21655;-69
2022/02/19 09:18:56;;;;;;;6.08;3.40;;;;;;;6.58;51.68;99483.22;1651918;86;21545;-68
2022/02/19 09:21:28;;;;;;;6.87;3.20;;;;;;;6.56;51.75;99475.23;1626667;86;21079;-69
2022/02/19 09:23:55;;;;;;;6.62;3.40;;;;;;;6.57;52.01;99454.27;1629776;86;21048;-67
2022/02/19 09:26:22;;;;;;;8.53;3.75;;;;;;;6.57;51.94;99470.19;1639918;85;21178;-68
2022/02/19 09:28:51;;;;;;;7.80;3.90;;;;;;;6.57;52.03;99468.33;1639788;86;21034;-69
2022/02/19 09:31:19;;;;;;;6.70;3.67;;;;;;;6.59;52.10;99476.05;1639954;85;21212;-69
2022/02/19 09:33:47;;;;;;;7.87;3.77;;;;;;;6.57;52.13;99483.45;1676807;84;21800;-70
2022/02/19 09:36:14;;;;;;;8.73;4.05;;;;;;;6.56;52.14;99489.83;1677459;84;21010;-69
2022/02/19 09:38:42;;;;;;;8.03;3.67;;;;;;;6.54;52.19;99475.48;1668988;85;21071;-68
2022/02/19 09:41:11;;;;;;;6.40;3.65;;;;;;;6.54;52.27;99465.40;1676488;85;20990;-68
2022/02/19 09:43:38;;;;;;;8.68;4.00;;;;;;;6.56;52.34;99453.48;1637296;86;20999;-69
2022/02/19 09:46:06;;;;;;;6.47;3.52;;;;;;;6.58;52.44;99454.53;1680322;84;21166;-68
2022/02/19 09:48:34;;;;;;;7.25;3.67;;;;;;;6.62;52.42;99481.38;1671693;84;21213;-70
2022/02/19 09:51:00;;;;;;;8.30;3.58;;;;;;;6.64;52.27;99476.06;1630516;86;21015;-68
2022/02/19 09:53:31;;;;;;;8.70;4.08;;;;;;;6.65;52.27;99475.03;1628387;86;21002;-68
2022/02/19 09:55:58;;;;;;;7.50;3.75;;;;;;;6.69;52.26;99444.27;1629172;85;21584;-68
2022/02/19 09:58:24;;;;;;;8.55;3.55;;;;;;;6.71;52.16;99446.14;1684043;83;21192;-68
2022/02/19 10:00:53;;;;;;;5.97;3.15;;;;;;;6.77;52.30;99407.13;1670590;85;20976;-68
2022/02/19 10:03:25;;;;;;;6.58;3.70;;;;;;;6.86;52.39;99380.36;1662302;84;21010;-68
2022/02/19 10:05:55;;;;;;;10.20;3.85;;;;;;;6.98;52.31;99360.23;1677930;84;21563;-69
2022/02/19 10:08:22;;;;;;;9.55;3.83;;;;;;;7.09;52.26;99351.22;1634447;86;20975;-68
2022/02/19 10:10:51;;;;;;;6.90;3.67;;;;;;;7.20;52.16;99346.17;1648601;85;21605;-68
2022/02/19 10:13:40;;;;;;;7.58;4.12;;;;;;;7.31;52.08;99332.39;1676863;85;21520;-69
2022/02/19 10:16:09;;;;;;;7.58;4.12;;;;;;;7.41;51.74;99366.92;1692994;84;20995;-69
2022/02/19 10:18:42;;;;;;;9.88;4.10;;;;;;;7.46;51.50;99367.45;1669267;85;21138;-68
2022/02/19 10:21:19;;;;;;;7.15;3.98;;;;;;;7.50;51.27;99388.44;1671930;84;21775;-68
2022/02/19 10:23:49;;;;;;;7.15;3.90;;;;;;;7.52;51.30;99411.03;1652466;85;21153;-68
2022/02/19 10:26:19;;;;;;;7.33;4.08;;;;;;;7.56;51.24;99437.86;1626104;88;21031;-68
2022/02/19 10:29:06;;;;;;;8.40;3.92;;;;;;;7.54;51.22;99426.72;1652045;86;21052;-69
2022/02/19 10:31:33;;;;;;;9.88;4.25;;;;;;;7.56;51.12;99448.49;1653076;84;21100;-68
2022/02/19 10:34:16;;;;;;;8.03;4.12;;;;;;;7.58;51.21;99445.05;1626996;86;20998;-68
2022/02/19 10:36:51;;;;;;;9.05;4.30;;;;;;;7.59;51.04;99413.96;1626102;88;21538;-68
2022/02/19 10:39:28;;;;;;;7.47;3.75;;;;;;;7.56;51.17;99460.45;1626167;88;21061;-67
2022/02/19 10:41:59;;;;;;;8.68;4.45;;;;;;;7.56;51.18;99445.84;1652282;86;21032;-68
2022/02/19 10:44:31;;;;;;;8.05;3.70;;;;;;;7.60;51.28;99445.59;1652108;86;21472;-68
2022/02/19 10:47:19;;;;;;;10.13;4.15;;;;;;;7.61;51.31;99443.73;1642584;87;21711;-68
2022/02/19 10:50:16;;;;;;;8.65;3.80;;;;;;;7.62;51.25;99463.92;1654365;86;21061;-68
2022/02/19 10:52:53;;;;;;;7.37;3.72;;;;;;;7.62;51.52;99440.80;1626329;88;21081;-68
2022/02/19 10:55:23;;;;;;;8.00;3.80;;;;;;;7.57;51.45;99455.42;1626301;88;21049;-68
2022/02/19 10:57:48;;;;;;;8.23;4.00;;;;;;;7.55;51.66;99473.48;1626212;88;21082;-67
2022/02/19 11:00:19;;;;;;;7.62;3.72;;;;;;;7.51;51.87;99478.52;1626239;88;21118;-67
2022/02/19 11:02:48;;;;;;;6.08;3.65;;;;;;;7.52;52.00;99470.81;1626283;88;21901;-69
2022/02/19 11:05:17;;;;;;;9.03;4.20;;;;;;;7.56;52.02;99462.31;1626095;88;21094;-68
2022/02/19 11:07:46;;;;;;;8.23;3.83;;;;;;;7.57;52.06;99449.29;1626241;88;21037;-68
2022/02/19 11:10:17;;;;;;;8.63;4.00;;;;;;;7.62;52.02;99458.08;1652001;86;21608;-68
2022/02/19 11:12:46;;;;;;;9.00;3.87;;;;;;;7.68;52.05;99441.61;1651816;86;21057;-68
2022/02/19 11:15:13;;;;;;;7.90;4.22;;;;;;;7.72;52.04;99440.80;1626387;88;21479;-68
2022/02/19 11:17:41;;;;;;;7.95;3.67;;;;;;;7.80;51.93;99470.57;1651810;86;20967;-68
2022/02/19 11:20:11;;;;;;;7.87;3.72;;;;;;;7.80;51.82;99440.00;1629001;86;20993;-68
2022/02/19 11:22:39;;;;;;;7.12;3.58;;;;;;;7.79;51.90;99443.20;1626209;86;21619;-69
2022/02/19 11:25:10;;;;;;;8.10;3.75;;;;;;;7.79;51.96;99432.56;1651851;86;21104;-69
2022/02/19 11:27:51;;;;;;;8.10;4.03;;;;;;;7.82;52.00;99464.47;1651952;86;21568;-68
2022/02/19 11:30:18;;;;;;;7.12;3.62;;;;;;;7.81;52.12;99460.23;1645498;86;21039;-67
2022/02/19 11:32:45;;;;;;;7.20;3.50;;;;;;;7.83;52.20;99455.42;1668334;85;21572;-69
2022/02/19 11:35:11;;;;;;;7.30;3.47;;;;;;;7.86;52.26;99458.34;1626210;88;21098;-69
2022/02/19 11:37:42;;;;;;;7.33;3.52;;;;;;;7.85;52.23;99438.69;1631946;86;21127;-68
2022/02/19 11:40:14;;;;;;;7.90;3.52;;;;;;;7.90;52.23;99410.25;1656095;85;21856;-69
2022/02/19 11:42:54;;;;;;;5.87;3.17;;;;;;;7.96;52.24;99388.42;1654377;86;21113;-69
2022/02/19 11:45:31;;;;;;;8.80;4.00;;;;;;;8.01;52.10;99403.05;1653981;86;21524;-68
2022/02/19 11:48:12;;;;;;;6.20;3.40;;;;;;;8.03;52.09;99418.22;1641925;87;21584;-68
2022/02/19 11:50:42;;;;;;;;;;;;;;;8.03;52.18;99432.02;1663400;85;21057;-68
2022/02/19 11:53:16;;;;;;;7.10;3.62;;;;;;;8.01;52.27;99442.14;1678469;85;21128;-68
2022/02/19 11:55:45;;;;;;;9.93;4.25;;;;;;;7.94;52.50;99449.06;1654189;86;21049;-68
2022/02/19 11:58:18;;;;;;;7.75;3.87;;;;;;;7.94;52.70;99438.42;1626304;86;21114;-68